Sault Ste. Marie, Ontario

1:45 PM EDT on July 24, 2016 (GMT -0400)
West End | | Change Station

Elev 597 ft 46.52 °N, 84.36 °W | Updated 2 seconds ago

Overcast
Overcast
70.4 °F
Feels Like 70.4 °F
N
0.0
Wind Variable Wind from NNW
Gusts 2.0 mph

Today
High -- | Low -- °F
--% Chance of Precip.
Yesterday
High -- | Low -- °F
Precip. -- in
Pressure 29.83 in
Visibility 12.0 miles
Clouds Scattered Clouds 900 ft
Overcast 1800 ft
Dew Point 70 °F
Humidity 98%
Rainfall 0.35 in
Snow Depth Not available.
6:09 AM 9:17 PM
Waning Gibbous, 74% visible
SPECI CYAM 241710Z 15005KT 12SM SCT009 OVC018 22/20 A2982 RMK CF3SC5 SLP100 DENSITY ALT 1600FT
Pressure 29.83 in
Visibility 12.0 miles
Clouds Scattered Clouds 900 ft
Overcast 1800 ft
Dew Point 70 °F
Humidity 98%
Rainfall 0.35 in
Snow Depth Not available.
6:09 AM 9:17 PM
Waning Gibbous, 74% visible
SPECI CYAM 241710Z 15005KT 12SM SCT009 OVC018 22/20 A2982 RMK CF3SC5 SLP100 DENSITY ALT 1600FT

10-Day Weather Forecast

Almanac

Astronomy

Jul. 24, 2016 Rise Set
Actual Time
Civil Twilight
Nautical Twilight
Astronomical Twilight
Moon
Length of Visible Light
Length of Day
Tomorrow will be .
, % of the Moon is Illuminated

Today's Extremes

Country Highs Country Lows

Community

WunderPhotos

Upload Photos

1,927,134 photos uploaded!

WunderBlog® & News

Nearby

Air Quality

  Air Quality AQ Index Pollutant
Not available.

Snow Depth

Station Depth Elevation

Earthquake Activity

City Distance Mag. Time & Date
Minimum magnitude displayed is 2.5.

Coastal Water Temperatures

Place Temperature

Stations

Nearby Weather Stations

Station Location Temp. Windchill Dew Point Humidity Wind Precip. Elev Updated Type
                   

Watches & Warnings

There are currently no watches in effect.